Time;durP1;ratioP1;P1;durP2;ratioP2;P2;SDS_P1;SDS_P2;PMS_P1;PMS_P2;Temp;Humidity;BMP_temperature;BMP_pressure;BME280_temperature;BME280_humidity;BME280_pressure;Samples;Min_cycle;Max_cycle;Signal;HPM_P1;HPM_P2
2022/08/22 00:00:38;;;;;;;1.98;1.75;;;27.30;1.00;;;;;;5035718;28;20037;-57
2022/08/22 00:03:19;;;;;;;1.75;1.60;;;27.30;1.00;;;;;;5030464;28;20029;-56
2022/08/22 00:06:04;;;;;;;4.20;1.60;;;27.20;1.00;;;;;;5036476;28;20037;-58
2022/08/22 00:08:45;;;;;;;1.55;1.45;;;27.20;1.00;;;;;;5018810;28;20436;-58
2022/08/22 00:11:40;;;;;;;1.70;1.40;;;27.20;1.00;;;;;;5032182;28;20422;-56
2022/08/22 00:14:17;;;;;;;2.72;1.70;;;27.10;1.00;;;;;;5030552;28;20034;-57
2022/08/22 00:17:09;;;;;;;1.50;1.20;;;27.10;1.00;;;;;;5026894;28;20029;-57
2022/08/22 00:19:52;;;;;;;1.35;1.25;;;27.10;1.00;;;;;;5037827;28;20049;-56
2022/08/22 00:22:21;;;;;;;1.40;1.30;;;27.10;1.00;;;;;;5032428;28;20030;-58
2022/08/22 00:25:18;;;;;;;1.33;1.30;;;27.00;1.00;;;;;;5030797;28;20048;-57
2022/08/22 00:27:56;;;;;;;2.53;1.10;;;27.00;1.00;;;;;;5037635;28;20029;-57
2022/08/22 00:30:23;;;;;;;4.32;1.42;;;27.00;1.00;;;;;;5032500;28;20061;-57
2022/08/22 00:32:55;;;;;;;2.83;1.42;;;27.00;1.00;;;;;;5031516;28;20018;-57
2022/08/22 00:35:41;;;;;;;2.05;1.10;;;26.90;1.00;;;;;;5029954;28;20029;-57
2022/08/22 00:38:20;;;;;;;2.30;1.30;;;26.90;1.00;;;;;;5020717;28;20110;-56
2022/08/22 00:41:09;;;;;;;1.83;1.13;;;26.90;1.00;;;;;;5045783;28;20026;-56
2022/08/22 00:43:59;;;;;;;1.60;1.20;;;26.90;1.00;;;;;;5035643;28;20030;-58
2022/08/22 00:46:40;;;;;;;1.42;1.20;;;26.90;1.00;;;;;;5021834;28;20421;-57
2022/08/22 00:49:29;;;;;;;1.45;1.20;;;26.90;1.00;;;;;;5031151;28;20403;-57
2022/08/22 00:52:03;;;;;;;2.33;1.17;;;26.80;1.00;;;;;;5033132;28;20032;-58
2022/08/22 00:54:52;;;;;;;2.95;1.40;;;26.90;1.00;;;;;;5035531;28;20114;-58
2022/08/22 00:57:21;;;;;;;2.45;1.48;;;26.80;1.00;;;;;;5035502;28;20387;-57
2022/08/22 01:00:12;;;;;;;1.45;1.30;;;26.80;1.00;;;;;;5035459;28;20471;-56
2022/08/22 01:03:16;;;;;;;1.63;1.52;;;26.70;1.00;;;;;;5034981;28;20025;-55
2022/08/22 01:05:59;;;;;;;3.28;1.33;;;26.60;1.00;;;;;;5042189;28;20032;-58
2022/08/22 01:08:46;;;;;;;1.67;1.33;;;26.60;1.00;;;;;;5037463;28;20372;-58
2022/08/22 01:11:36;;;;;;;1.75;1.65;;;26.60;1.00;;;;;;5036340;28;20037;-58
2022/08/22 01:14:08;;;;;;;3.03;1.50;;;26.60;1.00;;;;;;5033783;28;20033;-58
2022/08/22 01:16:59;;;;;;;2.22;1.20;;;26.60;1.00;;;;;;5033916;28;20464;-58
2022/08/22 01:19:47;;;;;;;4.13;1.90;;;26.60;1.00;;;;;;5041984;28;20068;-59
2022/08/22 01:22:47;;;;;;;1.50;1.40;;;26.50;1.00;;;;;;5028358;28;20026;-56
2022/08/22 01:25:32;;;;;;;3.50;1.30;;;26.60;1.00;;;;;;5037958;28;20108;-59
2022/08/22 01:28:15;;;;;;;1.65;1.20;;;26.60;1.00;;;;;;5030161;28;20060;-58
2022/08/22 01:31:12;;;;;;;1.45;1.30;;;26.60;1.00;;;;;;5033020;28;20021;-59
2022/08/22 01:34:01;;;;;;;1.55;1.33;;;26.50;1.00;;;;;;5033956;28;20427;-57
2022/08/22 01:36:50;;;;;;;1.60;1.50;;;26.40;1.00;;;;;;5027721;28;20036;-58
2022/08/22 01:39:46;;;;;;;3.33;1.40;;;26.40;1.00;;;;;;5022624;28;20060;-58
2022/08/22 01:42:49;;;;;;;1.98;1.40;;;26.30;1.00;;;;;;5035223;28;20014;-57
2022/08/22 01:45:43;;;;;;;1.88;1.77;;;26.30;1.00;;;;;;5030045;28;20033;-58
2022/08/22 01:48:20;;;;;;;2.50;1.23;;;26.20;1.00;;;;;;5033553;28;20511;-57
2022/08/22 01:50:52;;;;;;;1.20;1.10;;;26.30;1.00;;;;;;5040873;28;20428;-56
2022/08/22 01:53:39;;;;;;;1.65;1.30;;;26.30;1.00;;;;;;5033301;28;20041;-58
2022/08/22 01:56:12;;;;;;;1.52;1.40;;;26.20;1.00;;;;;;5032583;28;20479;-59
2022/08/22 01:58:59;;;;;;;2.15;1.40;;;26.20;1.00;;;;;;5033245;28;20513;-58
2022/08/22 02:01:31;;;;;;;1.25;0.90;;;26.10;1.00;;;;;;5032374;28;20041;-58
2022/08/22 02:04:17;;;;;;;1.35;1.25;;;26.10;1.00;;;;;;5037387;28;20037;-59
2022/08/22 02:07:03;;;;;;;3.30;1.67;;;26.20;1.00;;;;;;5020258;28;20164;-59
2022/08/22 02:10:07;;;;;;;1.92;1.38;;;26.20;1.00;;;;;;5034201;28;20121;-58
2022/08/22 02:12:35;;;;;;;1.23;1.20;;;26.20;1.00;;;;;;5022210;28;20542;-58
2022/08/22 02:15:13;;;;;;;1.38;1.27;;;26.10;1.00;;;;;;5032889;28;20049;-57
2022/08/22 02:18:05;;;;;;;3.40;1.50;;;26.20;1.00;;;;;;5033533;28;20037;-57
2022/08/22 02:20:52;;;;;;;1.27;1.25;;;26.20;1.00;;;;;;5024429;28;20064;-59
2022/08/22 02:23:35;;;;;;;1.10;1.05;;;26.10;1.00;;;;;;5033451;28;20056;-58
2022/08/22 02:26:01;;;;;;;1.23;1.20;;;26.10;1.00;;;;;;5036312;28;20032;-59
2022/08/22 02:28:54;;;;;;;1.33;1.23;;;26.10;1.00;;;;;;5033384;28;20029;-58
2022/08/22 02:31:46;;;;;;;2.63;1.08;;;26.10;1.00;;;;;;5032779;28;20463;-59
2022/08/22 02:34:42;;;;;;;1.48;1.38;;;26.10;1.00;;;;;;5041322;28;20390;-58
2022/08/22 02:37:19;;;;;;;1.10;1.00;;;26.10;1.00;;;;;;5029605;28;20021;-58
2022/08/22 02:39:50;;;;;;;1.60;1.13;;;26.00;1.00;;;;;;5028172;28;20041;-58
2022/08/22 02:42:36;;;;;;;1.40;1.30;;;26.00;1.00;;;;;;5023054;28;20026;-58
2022/08/22 02:45:10;;;;;;;1.55;1.30;;;26.00;1.00;;;;;;5038061;28;20025;-58
2022/08/22 02:48:05;;;;;;;1.25;1.17;;;25.90;1.00;;;;;;5035149;28;20033;-57
2022/08/22 02:50:46;;;;;;;2.17;1.08;;;25.90;1.00;;;;;;5005412;28;20091;-58
2022/08/22 02:53:35;;;;;;;1.45;1.35;;;26.00;1.00;;;;;;5032946;28;20040;-58
2022/08/22 02:56:10;;;;;;;1.25;1.20;;;26.00;1.00;;;;;;5031048;28;20064;-58
2022/08/22 02:58:52;;;;;;;4.72;1.73;;;25.80;1.00;;;;;;5038867;28;20025;-58
2022/08/22 03:01:26;;;;;;;1.58;1.13;;;25.80;1.00;;;;;;5035153;28;20067;-55
2022/08/22 03:04:44;;;;;;;3.22;1.52;;;25.80;1.00;;;;;;5029501;28;20364;-58
2022/08/22 03:07:13;;;;;;;1.77;1.60;;;25.80;1.00;;;;;;5034237;28;20072;-57
2022/08/22 03:10:21;;;;;;;2.08;1.58;;;25.80;1.00;;;;;;5030173;28;20034;-58
2022/08/22 03:13:08;;;;;;;1.63;1.48;;;25.80;1.00;;;;;;5028684;28;20021;-58
2022/08/22 03:15:59;;;;;;;3.83;1.10;;;25.80;1.00;;;;;;5031894;28;20033;-58
2022/08/22 03:18:45;;;;;;;1.70;1.50;;;25.80;1.00;;;;;;5031929;28;20136;-58
2022/08/22 03:21:29;;;;;;;3.50;1.05;;;25.80;1.00;;;;;;5035263;28;20405;-56
2022/08/22 03:24:04;;;;;;;2.13;1.30;;;25.80;1.00;;;;;;5033896;28;20454;-57
2022/08/22 03:27:05;;;;;;;4.20;1.30;;;25.70;1.00;;;;;;5041797;28;20034;-58
2022/08/22 03:29:44;;;;;;;2.25;1.00;;;25.70;1.00;;;;;;5031329;28;20113;-57
2022/08/22 03:32:14;;;;;;;2.75;1.60;;;25.70;1.00;;;;;;5021699;28;20026;-57
2022/08/22 03:35:00;;;;;;;1.08;1.05;;;25.70;1.00;;;;;;5029910;28;20036;-58
2022/08/22 03:37:41;;;;;;;2.35;1.35;;;25.80;1.00;;;;;;5032292;28;20022;-58
2022/08/22 03:40:30;;;;;;;1.55;1.35;;;25.70;1.00;;;;;;5030928;28;20485;-57
2022/08/22 03:43:13;;;;;;;1.75;1.38;;;25.70;1.00;;;;;;5032255;28;20475;-58
2022/08/22 03:46:10;;;;;;;1.35;1.25;;;25.70;1.00;;;;;;5019925;28;20033;-57
2022/08/22 03:49:04;;;;;;;1.80;1.20;;;25.70;1.00;;;;;;5034003;28;20096;-58
2022/08/22 03:51:41;;;;;;;1.80;1.20;;;25.70;1.00;;;;;;5032654;28;20067;-58
2022/08/22 03:54:31;;;;;;;1.38;1.27;;;25.70;1.00;;;;;;5019593;28;20026;-57
2022/08/22 03:57:22;;;;;;;1.45;1.13;;;25.70;1.00;;;;;;5033193;28;20112;-57
2022/08/22 04:00:00;;;;;;;2.05;1.45;;;25.70;1.00;;;;;;5031214;28;20124;-58
2022/08/22 04:02:50;;;;;;;2.72;1.20;;;25.70;1.00;;;;;;5028214;28;20082;-57
2022/08/22 04:06:03;;;;;;;1.67;1.40;;;25.70;1.00;;;;;;5030925;28;20029;-58
2022/08/22 04:08:47;;;;;;;1.27;1.17;;;25.60;1.00;;;;;;5031858;28;20029;-58
2022/08/22 04:11:35;;;;;;;2.58;1.42;;;25.60;1.00;;;;;;5021418;28;20025;-56
2022/08/22 04:14:38;;;;;;;2.35;1.60;;;25.60;1.00;;;;;;5035810;28;20042;-55
2022/08/22 04:17:25;;;;;;;1.45;1.38;;;25.60;1.00;;;;;;5041269;28;20034;-58
2022/08/22 04:20:19;;;;;;;1.40;1.30;;;25.60;1.00;;;;;;5031247;28;20064;-58
2022/08/22 04:23:13;;;;;;;1.38;1.20;;;25.60;1.00;;;;;;5032103;28;20482;-58
2022/08/22 04:25:50;;;;;;;2.80;1.50;;;25.60;1.00;;;;;;5037787;28;20045;-57
2022/08/22 04:28:45;;;;;;;1.60;1.48;;;25.60;1.00;;;;;;5019273;28;20491;-58
2022/08/22 04:31:13;;;;;;;1.30;1.20;;;25.60;1.00;;;;;;5036738;28;20087;-58
2022/08/22 04:33:57;;;;;;;2.10;1.40;;;25.50;1.00;;;;;;5031525;28;20029;-58
2022/08/22 04:37:00;;;;;;;2.22;1.23;;;25.60;1.00;;;;;;5038822;28;20044;-58
2022/08/22 04:39:31;;;;;;;2.65;1.65;;;25.60;1.00;;;;;;5008576;28;20435;-58
2022/08/22 04:42:19;;;;;;;2.00;1.90;;;25.60;1.00;;;;;;5018639;28;20025;-58
2022/08/22 04:44:56;;;;;;;2.67;1.60;;;25.60;1.00;;;;;;5031554;28;20053;-57
2022/08/22 04:47:24;;;;;;;1.98;1.10;;;25.50;1.00;;;;;;5020984;28;20136;-57
2022/08/22 04:50:03;;;;;;;2.35;1.50;;;25.60;1.00;;;;;;5030887;28;20131;-58
2022/08/22 04:52:44;;;;;;;4.80;1.33;;;25.50;1.00;;;;;;5022457;28;20567;-57
2022/08/22 04:55:29;;;;;;;1.40;1.27;;;25.50;1.00;;;;;;5031972;28;20038;-57
2022/08/22 04:58:16;;;;;;;1.20;1.00;;;25.60;1.00;;;;;;5019247;28;20113;-57
2022/08/22 05:00:56;;;;;;;2.20;1.35;;;25.60;1.00;;;;;;5032211;28;20111;-58
2022/08/22 05:03:25;;;;;;;2.50;1.40;;;25.60;1.00;;;;;;5031212;28;20158;-58
2022/08/22 05:05:52;;;;;;;2.42;1.33;;;25.60;1.00;;;;;;5037634;28;20083;-56
2022/08/22 05:08:23;;;;;;;2.80;1.25;;;25.60;1.00;;;;;;5031097;28;20029;-55
2022/08/22 05:10:50;;;;;;;1.27;1.10;;;25.60;1.00;;;;;;5030478;28;20053;-58
2022/08/22 05:13:28;;;;;;;2.20;1.35;;;25.70;1.00;;;;;;5031100;28;20017;-58
2022/08/22 05:15:57;;;;;;;1.80;1.38;;;25.60;1.00;;;;;;5030563;28;20021;-58
2022/08/22 05:18:29;;;;;;;1.95;1.50;;;25.60;1.00;;;;;;5030789;28;20056;-56
2022/08/22 05:20:59;;;;;;;1.42;1.33;;;25.70;1.00;;;;;;5030200;28;20112;-57
2022/08/22 05:23:45;;;;;;;3.47;1.67;;;25.70;1.00;;;;;;5034924;28;20032;-56
2022/08/22 05:26:13;;;;;;;4.05;1.45;;;25.60;1.00;;;;;;5031490;28;20088;-57
2022/08/22 05:29:01;;;;;;;3.25;2.00;;;25.70;1.00;;;;;;5037099;28;20475;-58
2022/08/22 05:31:35;;;;;;;2.28;1.45;;;25.70;1.00;;;;;;5033639;28;20027;-57
2022/08/22 05:34:03;;;;;;;;;;;25.70;1.00;;;;;;5035053;28;20030;-57
2022/08/22 05:36:35;;;;;;;1.40;1.30;;;25.70;1.00;;;;;;5034250;28;19920;-58
2022/08/22 05:39:12;;;;;;;1.60;1.38;;;25.70;1.00;;;;;;5034504;28;20038;-57
2022/08/22 05:41:41;;;;;;;1.60;1.50;;;25.70;1.00;;;;;;5033381;28;20043;-56
2022/08/22 05:44:15;;;;;;;2.83;1.42;;;25.70;1.00;;;;;;5034455;28;20035;-58
2022/08/22 05:46:50;;;;;;;1.55;1.33;;;25.70;1.00;;;;;;5033414;28;20033;-56
2022/08/22 05:49:34;;;;;;;1.70;1.60;;;25.60;1.00;;;;;;5034266;28;20075;-57
2022/08/22 05:52:37;;;;;;;1.40;1.30;;;25.70;1.00;;;;;;5024665;28;20104;-58
2022/08/22 05:55:16;;;;;;;1.85;1.30;;;25.60;1.00;;;;;;5033841;28;20032;-57
2022/08/22 05:57:48;;;;;;;1.67;1.33;;;25.70;1.00;;;;;;5033374;28;20029;-56
2022/08/22 06:00:19;;;;;;;2.80;1.42;;;25.70;1.00;;;;;;5044253;28;20033;-55
2022/08/22 06:03:13;;;;;;;1.23;1.13;;;25.80;1.00;;;;;;5031388;28;20022;-58
2022/08/22 06:05:42;;;;;;;5.72;1.30;;;25.80;1.00;;;;;;5036726;28;20034;-56
2022/08/22 06:08:20;;;;;;;2.45;1.58;;;25.70;1.00;;;;;;5033072;28;20030;-57
2022/08/22 06:10:56;;;;;;;1.50;1.40;;;25.70;1.00;;;;;;5021625;28;20111;-58
2022/08/22 06:13:39;;;;;;;1.27;1.20;;;25.80;1.00;;;;;;5028857;28;20068;-58
2022/08/22 06:16:21;;;;;;;2.90;1.20;;;25.80;1.00;;;;;;5034189;28;20029;-57
2022/08/22 06:22:22;;;;;;;1.60;1.50;;;25.80;1.00;;;;;;5021434;28;20395;-58
2022/08/22 06:24:49;;;;;;;1.90;1.60;;;25.80;1.00;;;;;;5041615;28;20067;-58
2022/08/22 06:27:21;;;;;;;1.50;1.40;;;25.80;1.00;;;;;;5032597;28;20025;-58
2022/08/22 06:29:54;;;;;;;1.67;1.30;;;25.80;1.00;;;;;;5019800;28;20394;-58
2022/08/22 06:32:25;;;;;;;1.95;1.50;;;25.90;1.00;;;;;;5040689;28;20016;-58
2022/08/22 06:34:53;;;;;;;1.52;1.40;;;25.90;1.00;;;;;;5032611;28;20034;-58
2022/08/22 06:37:30;;;;;;;2.15;1.60;;;25.90;1.00;;;;;;5030763;28;20044;-57
2022/08/22 06:39:58;;;;;;;6.15;1.73;;;26.00;1.00;;;;;;5032571;28;20033;-58
2022/08/22 06:42:29;;;;;;;1.42;1.23;;;25.90;1.00;;;;;;5033113;28;20080;-59
2022/08/22 06:45:12;;;;;;;3.55;1.35;;;26.00;1.00;;;;;;5033408;28;20022;-58
2022/08/22 06:48:00;;;;;;;3.05;1.45;;;26.00;1.00;;;;;;5038756;28;20043;-57
2022/08/22 06:50:38;;;;;;;1.10;1.10;;;26.00;1.00;;;;;;5021382;28;20038;-58
2022/08/22 06:53:35;;;;;;;1.40;1.15;;;26.10;1.00;;;;;;5045019;28;20099;-57
2022/08/22 06:56:04;;;;;;;2.88;1.48;;;26.00;1.00;;;;;;5028610;28;20137;-58
2022/08/22 06:58:46;;;;;;;2.40;1.20;;;26.10;1.00;;;;;;5031928;28;20061;-56
2022/08/22 07:04:35;;;;;;;2.00;1.30;;;26.10;1.00;;;;;;5018626;28;20033;-57
2022/08/22 07:07:01;;;;;;;1.92;1.08;;;26.10;1.00;;;;;;5031994;28;20021;-57
2022/08/22 07:09:36;;;;;;;3.72;1.45;;;26.10;1.00;;;;;;5032649;28;20051;-58
2022/08/22 07:12:10;;;;;;;1.92;1.10;;;26.10;1.00;;;;;;5021500;28;20056;-58
2022/08/22 07:14:45;;;;;;;2.85;1.30;;;26.10;1.00;;;;;;5031853;28;20407;-57
2022/08/22 07:17:24;;;;;;;1.58;1.10;;;26.10;1.00;;;;;;5031435;28;20033;-57
2022/08/22 07:19:59;;;;;;;2.80;1.27;;;26.10;1.00;;;;;;5019549;28;20040;-57
2022/08/22 07:22:29;;;;;;;1.60;1.20;;;26.20;1.00;;;;;;5031294;28;20056;-57
2022/08/22 07:25:07;;;;;;;2.15;1.30;;;26.30;1.00;;;;;;5031305;28;20033;-58
2022/08/22 07:27:40;;;;;;;1.73;1.27;;;26.30;1.00;;;;;;5030559;28;20056;-56
2022/08/22 07:30:13;;;;;;;1.15;0.93;;;26.30;1.00;;;;;;5032412;28;20044;-59
2022/08/22 07:32:58;;;;;;;1.05;0.95;;;26.30;1.00;;;;;;5035218;28;20116;-59
2022/08/22 07:35:32;;;;;;;2.38;0.98;;;26.30;1.00;;;;;;5031357;28;20049;-56
2022/08/22 07:38:09;;;;;;;1.25;1.17;;;26.30;1.00;;;;;;5028665;28;20057;-58
2022/08/22 07:40:47;;;;;;;0.88;0.70;;;26.40;1.00;;;;;;5032400;28;20057;-58
2022/08/22 07:43:28;;;;;;;1.23;1.10;;;26.40;1.00;;;;;;5031806;28;20025;-57
2022/08/22 07:46:39;;;;;;;2.25;1.00;;;26.40;1.00;;;;;;5039483;28;20039;-56
2022/08/22 07:49:25;;;;;;;2.00;1.00;;;26.50;1.00;;;;;;5039437;28;20112;-57
2022/08/22 07:52:07;;;;;;;2.75;1.20;;;26.40;1.00;;;;;;5034910;28;20108;-58
2022/08/22 07:54:59;;;;;;;2.63;1.17;;;26.50;1.00;;;;;;5031861;28;20056;-58
2022/08/22 07:57:39;;;;;;;1.98;0.93;;;26.50;1.00;;;;;;5033099;28;20057;-58
2022/08/22 08:00:13;;;;;;;1.23;1.02;;;26.50;1.00;;;;;;5018820;28;20030;-57
2022/08/22 08:02:45;;;;;;;1.00;1.00;;;26.60;1.00;;;;;;5034120;28;20033;-57
2022/08/22 08:05:12;;;;;;;1.48;1.13;;;26.60;1.00;;;;;;5031887;28;20025;-58
2022/08/22 08:07:41;;;;;;;2.10;1.30;;;26.70;1.00;;;;;;5031033;28;20025;-58
2022/08/22 08:10:30;;;;;;;1.20;1.10;;;26.60;1.00;;;;;;5031707;28;20021;-59
2022/08/22 08:23:09;;;;;;;2.42;1.08;;;26.80;1.00;;;;;;5024061;28;20053;-57
2022/08/22 08:25:50;;;;;;;4.18;1.10;;;26.80;1.00;;;;;;5028174;28;20032;-58
2022/08/22 08:28:34;;;;;;;3.63;1.10;;;26.90;1.00;;;;;;5031543;28;20073;-57
2022/08/22 08:31:17;;;;;;;2.35;1.13;;;26.90;1.00;;;;;;5036071;28;20397;-58
2022/08/22 08:33:47;;;;;;;1.35;1.00;;;26.90;1.00;;;;;;5031352;28;20025;-58
2022/08/22 08:36:24;;;;;;;2.20;1.23;;;26.90;1.00;;;;;;5034998;28;20398;-56
2022/08/22 08:38:58;;;;;;;1.83;0.95;;;27.00;1.00;;;;;;5031406;28;20108;-58
2022/08/22 08:41:46;;;;;;;2.25;1.15;;;27.00;1.00;;;;;;5035620;28;20390;-58
2022/08/22 08:44:48;;;;;;;0.93;0.93;;;27.00;1.00;;;;;;5017579;28;20108;-57
2022/08/22 08:47:19;;;;;;;1.80;1.40;;;27.10;1.00;;;;;;5028478;28;20029;-59
2022/08/22 08:50:06;;;;;;;2.40;2.20;;;27.10;1.00;;;;;;5038959;28;20378;-58
2022/08/22 08:53:05;;;;;;;2.25;1.23;;;27.20;1.00;;;;;;5036669;28;20029;-57
2022/08/22 08:55:40;;;;;;;3.63;1.15;;;27.20;1.00;;;;;;5040194;28;20047;-58
2022/08/22 08:58:18;;;;;;;2.05;1.25;;;27.20;1.00;;;;;;5032711;28;20033;-58
2022/08/22 09:00:54;;;;;;;2.38;0.93;;;27.30;1.00;;;;;;5042149;28;20507;-58
2022/08/22 09:03:37;;;;;;;1.42;1.02;;;27.30;1.00;;;;;;5035539;28;20087;-59
2022/08/22 09:06:37;;;;;;;1.38;1.00;;;27.30;1.00;;;;;;5047672;28;20028;-58
2022/08/22 09:09:14;;;;;;;2.20;1.20;;;27.30;1.00;;;;;;5025600;28;20049;-57
2022/08/22 09:11:45;;;;;;;2.97;1.25;;;27.40;1.00;;;;;;5032614;28;20487;-58
2022/08/22 09:14:45;;;;;;;0.90;0.90;;;27.40;1.00;;;;;;5039268;28;20020;-57
2022/08/22 09:17:48;;;;;;;1.15;1.08;;;27.50;1.00;;;;;;5022462;28;20032;-56
2022/08/22 09:20:37;;;;;;;2.45;0.90;;;27.50;1.00;;;;;;5034146;28;20049;-58
2022/08/22 09:23:35;;;;;;;2.05;1.00;;;27.50;1.00;;;;;;5034664;28;20515;-58
2022/08/22 09:26:21;;;;;;;0.98;0.90;;;27.60;1.00;;;;;;5034949;28;20565;-58
2022/08/22 09:29:24;;;;;;;2.38;1.08;;;27.60;1.00;;;;;;5034974;28;20029;-58
2022/08/22 09:32:07;;;;;;;3.13;1.50;;;27.60;1.00;;;;;;5034610;28;20131;-58
2022/08/22 09:34:58;;;;;;;1.48;1.38;;;27.60;1.00;;;;;;5033627;28;20018;-58
2022/08/22 09:37:34;;;;;;;3.15;1.50;;;27.70;1.00;;;;;;5028639;28;20022;-58
2022/08/22 09:40:04;;;;;;;1.40;1.33;;;27.80;1.00;;;;;;5032793;28;20041;-58
2022/08/22 09:42:48;;;;;;;1.85;1.48;;;27.90;1.00;;;;;;5034386;28;20033;-58
2022/08/22 09:45:32;;;;;;;6.53;1.58;;;27.80;1.00;;;;;;5028647;28;20416;-56
2022/08/22 09:48:20;;;;;;;1.67;1.20;;;27.90;1.00;;;;;;5032874;28;20344;-57
2022/08/22 09:51:00;;;;;;;1.30;1.20;;;28.00;1.00;;;;;;5033646;28;20491;-57
2022/08/22 09:54:01;;;;;;;5.38;2.20;;;27.90;1.00;;;;;;5022247;28;20135;-57
2022/08/22 09:56:39;;;;;;;3.70;1.20;;;28.00;1.00;;;;;;5043080;28;20030;-57
2022/08/22 09:59:20;;;;;;;3.35;1.67;;;28.10;1.00;;;;;;5034307;28;20044;-57
2022/08/22 10:01:46;;;;;;;1.90;1.60;;;28.10;1.00;;;;;;5030793;28;20444;-58
2022/08/22 10:04:55;;;;;;;2.17;1.30;;;28.10;1.00;;;;;;5034751;28;20140;-57
2022/08/22 10:07:50;;;;;;;2.95;1.88;;;28.10;1.00;;;;;;5033578;28;20167;-58
2022/08/22 10:10:44;;;;;;;4.15;1.33;;;28.20;1.00;;;;;;5034726;28;20036;-58
2022/08/22 10:13:49;;;;;;;1.55;1.45;;;28.30;1.00;;;;;;5033517;28;20483;-58
2022/08/22 10:16:33;;;;;;;2.92;1.23;;;28.30;1.00;;;;;;5032912;28;20049;-59
2022/08/22 10:19:23;;;;;;;2.70;1.88;;;28.40;1.00;;;;;;5033691;28;20041;-59
2022/08/22 10:22:19;;;;;;;2.15;1.63;;;28.40;1.00;;;;;;5030116;28;20479;-58
2022/08/22 10:24:56;;;;;;;2.40;1.30;;;28.50;1.00;;;;;;5032999;28;20117;-58
2022/08/22 10:28:01;;;;;;;3.28;1.73;;;28.50;1.00;;;;;;5025964;28;20031;-56
2022/08/22 10:30:33;;;;;;;1.63;1.42;;;28.50;1.00;;;;;;5040809;28;20079;-57
2022/08/22 10:33:40;;;;;;;2.97;1.30;;;28.70;1.00;;;;;;5032081;28;20040;-58
2022/08/22 10:36:11;;;;;;;0.88;0.88;;;28.60;1.00;;;;;;5031937;28;20139;-56
2022/08/22 10:38:53;;;;;;;1.27;1.20;;;28.70;1.00;;;;;;5031933;28;20037;-57
2022/08/22 10:41:37;;;;;;;1.35;1.20;;;28.90;1.00;;;;;;5042687;28;20108;-58
2022/08/22 10:44:16;;;;;;;;;;;28.90;1.00;;;;;;5033789;28;20072;-57
2022/08/22 10:46:52;;;;;;;1.33;1.00;;;29.00;1.00;;;;;;5044202;28;20322;-58
2022/08/22 10:49:27;;;;;;;2.10;1.20;;;29.00;1.00;;;;;;5033166;28;20032;-57
2022/08/22 10:52:13;;;;;;;2.25;1.70;;;29.00;1.00;;;;;;5032139;28;20476;-58
2022/08/22 10:55:04;;;;;;;3.38;1.98;;;29.10;1.00;;;;;;5032155;28;20041;-58
2022/08/22 10:57:57;;;;;;;2.45;1.40;;;29.10;1.00;;;;;;5020978;28;20056;-58
2022/08/22 11:00:48;;;;;;;2.20;1.50;;;29.10;1.00;;;;;;5033914;28;20033;-58
2022/08/22 11:03:23;;;;;;;3.10;1.50;;;29.00;1.00;;;;;;5039856;28;20033;-58
2022/08/22 11:05:51;;;;;;;2.28;1.85;;;29.10;1.00;;;;;;5019789;28;20044;-59
2022/08/22 11:09:09;;;;;;;3.53;1.30;;;29.30;1.00;;;;;;5030326;28;20025;-57
2022/08/22 11:11:41;;;;;;;2.15;1.50;;;29.50;1.00;;;;;;5026201;28;20033;-58
2022/08/22 11:14:37;;;;;;;2.05;0.90;;;29.50;1.00;;;;;;5032951;28;20372;-57
2022/08/22 11:17:32;;;;;;;2.70;1.65;;;29.50;1.00;;;;;;5031915;28;20451;-57
2022/08/22 11:20:10;;;;;;;2.22;1.33;;;29.60;1.00;;;;;;5033331;28;20045;-57
2022/08/22 11:23:03;;;;;;;3.13;1.52;;;29.80;1.00;;;;;;5029746;28;20172;-58
2022/08/22 11:25:42;;;;;;;1.70;1.60;;;29.80;1.00;;;;;;5038751;28;20503;-59
2022/08/22 11:28:19;;;;;;;3.30;1.65;;;29.90;1.00;;;;;;5019569;28;20424;-58
2022/08/22 11:31:22;;;;;;;2.00;1.80;;;30.00;1.00;;;;;;5030571;28;20076;-59
2022/08/22 11:33:57;;;;;;;2.13;1.90;;;30.10;1.00;;;;;;5032669;28;20351;-59
2022/08/22 11:36:50;;;;;;;3.60;3.25;;;30.10;1.00;;;;;;5031279;28;20078;-58
2022/08/22 11:39:41;;;;;;;1.98;1.25;;;30.10;1.00;;;;;;5026920;28;20033;-58
2022/08/22 11:42:22;;;;;;;1.63;1.27;;;30.20;1.00;;;;;;5031345;28;20025;-57
2022/08/22 11:44:59;;;;;;;1.52;1.20;;;30.40;1.00;;;;;;5032364;28;20433;-59
2022/08/22 11:47:41;;;;;;;1.48;1.38;;;30.50;1.00;;;;;;5031202;28;20025;-58
2022/08/22 11:53:16;;;;;;;1.88;1.40;;;30.60;1.00;;;;;;5031370;28;20501;-59
2022/08/22 11:55:54;;;;;;;1.70;1.40;;;30.80;1.00;;;;;;5032080;28;20025;-59
2022/08/22 11:58:41;;;;;;;1.88;1.50;;;30.90;1.00;;;;;;5031126;28;20048;-59
2022/08/22 12:01:18;;;;;;;2.88;1.70;;;31.20;1.00;;;;;;5031675;28;20018;-59
2022/08/22 12:04:14;;;;;;;2.70;1.67;;;31.40;1.00;;;;;;5031903;28;20029;-59
2022/08/22 12:06:54;;;;;;;1.65;1.60;;;32.30;1.00;;;;;;5030868;28;20038;-59
2022/08/22 12:09:40;;;;;;;2.67;1.63;;;34.80;1.00;;;;;;5031873;28;20022;-59
2022/08/22 12:12:09;;;;;;;1.67;1.67;;;36.30;1.00;;;;;;5019389;28;20033;-60
2022/08/22 12:14:56;;;;;;;2.83;2.08;;;39.50;1.00;;;;;;5031793;28;20018;-59
2022/08/22 12:17:57;;;;;;;3.08;2.75;;;41.80;1.00;;;;;;5030996;28;20036;-59
2022/08/22 12:20:39;;;;;;;3.10;2.40;;;44.40;1.00;;;;;;5030810;28;20076;-59
2022/08/22 12:23:11;;;;;;;4.13;2.70;;;45.30;99.90;;;;;;5038118;28;20151;-59
2022/08/22 12:25:37;;;;;;;3.15;3.05;;;46.90;99.90;;;;;;5031623;28;20087;-58
2022/08/22 12:28:28;;;;;;;4.53;3.35;;;46.80;99.90;;;;;;5035289;28;20060;-58
2022/08/22 12:30:59;;;;;;;3.67;3.47;;;46.90;99.90;;;;;;5034596;28;20088;-58
2022/08/22 12:33:35;;;;;;;3.80;3.60;;;45.50;99.90;;;;;;5034172;28;20026;-59
2022/08/22 12:36:18;;;;;;;4.90;4.53;;;45.20;99.90;;;;;;5024020;28;20053;-59
2022/08/22 12:38:59;;;;;;;4.60;4.35;;;43.80;1.00;;;;;;5038633;28;20095;-58
2022/08/22 12:41:42;;;;;;;4.30;4.10;;;43.20;1.00;;;;;;5035948;28;20468;-58
2022/08/22 12:44:07;;;;;;;6.43;4.80;;;43.20;1.00;;;;;;5038530;28;20030;-58
2022/08/22 12:46:36;;;;;;;4.72;4.50;;;42.40;1.00;;;;;;5034845;28;20028;-58
2022/08/22 12:49:14;;;;;;;5.70;5.40;;;41.40;1.00;;;;;;5039503;28;20041;-58
2022/08/22 12:52:10;;;;;;;5.72;5.32;;;40.20;1.00;;;;;;5035469;28;20506;-58
2022/08/22 12:54:45;;;;;;;5.47;5.25;;;40.60;1.00;;;;;;5030218;28;20099;-58
2022/08/22 12:57:16;;;;;;;5.70;5.30;;;42.70;1.00;;;;;;5034480;28;20068;-58
2022/08/22 12:59:46;;;;;;;5.32;5.03;;;45.10;99.90;;;;;;5035081;28;20459;-58
2022/08/22 13:02:18;;;;;;;5.50;5.20;;;46.30;99.90;;;;;;5036780;28;20495;-58
2022/08/22 13:04:54;;;;;;;4.97;4.78;;;47.70;99.90;;;;;;5034980;28;20095;-58
2022/08/22 13:07:26;;;;;;;5.40;5.10;;;48.70;99.90;;;;;;5033594;28;20099;-58
2022/08/22 13:09:56;;;;;;;5.95;5.55;;;48.30;99.90;;;;;;5036191;28;20057;-58
2022/08/22 13:12:31;;;;;;;5.90;5.60;;;48.90;99.90;;;;;;5034179;28;20431;-58
2022/08/22 13:15:09;;;;;;;5.80;5.57;;;49.30;99.90;;;;;;5044704;28;20030;-58
2022/08/22 13:17:35;;;;;;;6.47;6.03;;;50.60;99.90;;;;;;5036440;28;20036;-59
2022/08/22 13:20:10;;;;;;;6.00;5.35;;;50.80;99.90;;;;;;5044668;28;20467;-58
2022/08/22 13:22:40;;;;;;;6.63;6.20;;;50.60;99.90;;;;;;5035722;28;20115;-59
2022/08/22 13:25:17;;;;;;;5.78;5.38;;;50.10;99.90;;;;;;5043103;28;20040;-58
2022/08/22 13:27:47;;;;;;;5.82;5.38;;;49.50;99.90;;;;;;5031790;28;20064;-58
2022/08/22 13:30:21;;;;;;;5.40;5.18;;;50.70;99.90;;;;;;5033605;28;20416;-58
2022/08/22 13:32:52;;;;;;;7.30;5.82;;;51.50;99.90;;;;;;5033824;28;20509;-58
2022/08/22 13:35:29;;;;;;;5.90;5.60;;;51.40;99.90;;;;;;5033397;28;20064;-58
2022/08/22 13:38:03;;;;;;;5.63;5.28;;;50.80;99.90;;;;;;5037572;28;20029;-58
2022/08/22 13:40:30;;;;;;;6.63;5.70;;;51.40;99.90;;;;;;5041396;28;20048;-59
2022/08/22 13:43:10;;;;;;;5.50;5.20;;;51.10;99.90;;;;;;5037355;28;20064;-58
2022/08/22 13:45:39;;;;;;;5.20;5.00;;;49.90;99.90;;;;;;5041506;28;20128;-58
2022/08/22 13:48:13;;;;;;;5.53;5.30;;;50.10;99.90;;;;;;5037414;28;20025;-58
2022/08/22 13:51:23;;;;;;;5.40;5.10;;;48.70;99.90;;;;;;5042016;28;20368;-58
2022/08/22 13:54:09;;;;;;;5.20;5.00;;;46.00;99.90;;;;;;5022057;28;20045;-58
2022/08/22 13:56:44;;;;;;;5.30;5.00;;;45.50;99.90;;;;;;5034232;28;20060;-58
2022/08/22 13:59:23;;;;;;;5.55;5.18;;;46.40;99.90;;;;;;5033461;28;20142;-58
2022/08/22 14:02:21;;;;;;;4.90;4.57;;;45.80;99.90;;;;;;5034145;28;20098;-58
2022/08/22 14:04:49;;;;;;;5.28;4.95;;;45.70;99.90;;;;;;5033787;28;20069;-59
2022/08/22 14:07:39;;;;;;;5.00;4.78;;;42.70;99.90;;;;;;5034117;28;20022;-59
2022/08/22 14:10:10;;;;;;;5.15;4.95;;;41.70;1.00;;;;;;5031987;28;20025;-59
2022/08/22 14:13:04;;;;;;;5.28;4.75;;;41.60;1.00;;;;;;5033202;28;20112;-58
2022/08/22 14:15:33;;;;;;;5.00;4.60;;;41.50;1.00;;;;;;5021031;28;20083;-59
2022/08/22 14:18:30;;;;;;;4.90;4.63;;;41.20;1.00;;;;;;5035848;28;20474;-58
2022/08/22 14:21:26;;;;;;;5.28;4.97;;;41.60;1.00;;;;;;5024779;28;20163;-59
2022/08/22 14:23:55;;;;;;;4.43;4.22;;;41.70;1.00;;;;;;5032965;28;20175;-58
2022/08/22 14:26:35;;;;;;;4.65;4.38;;;41.10;1.00;;;;;;5039028;28;20036;-58
2022/08/22 14:29:13;;;;;;;5.82;5.22;;;41.30;1.00;;;;;;5032532;28;20029;-58
2022/08/22 14:31:40;;;;;;;4.80;4.57;;;41.40;1.00;;;;;;5033876;28;20083;-59